createdAt,value
2019-03-24T00:00:36.562Z,18.33
2019-03-24T00:03:02.866Z,18.83
2019-03-24T00:05:28.855Z,17.37
2019-03-24T00:07:56.846Z,17.50
2019-03-24T00:10:23.362Z,18.13
2019-03-24T00:12:49.707Z,18.07
2019-03-24T00:15:25.817Z,19.50
2019-03-24T00:17:43.706Z,17.70
2019-03-24T00:20:10.379Z,20.87
2019-03-24T00:22:36.592Z,19.53
2019-03-24T00:25:04.991Z,17.53
2019-03-24T00:27:30.975Z,20.77
2019-03-24T00:29:56.978Z,20.33
2019-03-24T00:32:22.975Z,20.80
2019-03-24T00:34:48.975Z,21.23
2019-03-24T00:37:15.255Z,21.03
2019-03-24T00:39:41.255Z,21.93
2019-03-24T00:42:07.251Z,21.13
2019-03-24T00:44:33.248Z,20.93
2019-03-24T00:46:59.231Z,20.60
2019-03-24T00:49:25.250Z,21.07
2019-03-24T00:51:51.223Z,21.43
2019-03-24T00:54:17.529Z,19.50
2019-03-24T00:56:43.515Z,21.50
2019-03-24T00:59:09.516Z,20.73
2019-03-24T01:01:35.804Z,22.70
2019-03-24T01:04:01.795Z,22.53
2019-03-24T01:06:27.799Z,20.40
2019-03-24T01:08:53.793Z,22.53
2019-03-24T01:11:20.110Z,22.47
2019-03-24T01:13:46.095Z,24.00
2019-03-24T01:16:12.363Z,22.83
2019-03-24T01:18:38.364Z,23.97
2019-03-24T01:21:04.366Z,22.40
2019-03-24T01:23:30.412Z,21.60
2019-03-24T01:25:56.463Z,23.07
2019-03-24T01:28:22.695Z,24.17
2019-03-24T01:30:48.707Z,24.43
2019-03-24T01:33:14.708Z,22.90
2019-03-24T01:35:40.696Z,24.10
2019-03-24T01:38:06.702Z,25.47
2019-03-24T01:40:33.224Z,24.03
2019-03-24T01:42:59.227Z,22.80
2019-03-24T01:45:25.220Z,25.90
2019-03-24T01:47:51.227Z,25.13
2019-03-24T01:50:17.215Z,22.90
2019-03-24T01:52:43.258Z,25.73
2019-03-24T01:55:09.259Z,23.93
2019-03-24T01:57:35.243Z,24.00
2019-03-24T02:00:01.441Z,25.93
2019-03-24T02:02:27.431Z,23.87
2019-03-24T02:04:53.439Z,22.80
2019-03-24T02:07:19.435Z,25.23
2019-03-24T02:09:45.431Z,25.37
2019-03-24T02:12:11.424Z,27.73
2019-03-24T02:14:37.430Z,25.20
2019-03-24T02:17:03.425Z,26.17
2019-03-24T02:19:29.426Z,26.13
2019-03-24T02:21:55.632Z,26.07
2019-03-24T02:24:21.685Z,24.50
2019-03-24T02:26:47.736Z,25.20
2019-03-24T02:29:13.737Z,25.03
2019-03-24T02:31:39.740Z,24.80
2019-03-24T02:34:05.732Z,27.00
2019-03-24T02:36:31.731Z,27.63
2019-03-24T02:38:57.728Z,25.63
2019-03-24T02:41:24.031Z,25.80
2019-03-24T02:43:50.031Z,25.53
2019-03-24T02:46:24.130Z,26.03
2019-03-24T02:48:44.167Z,26.87
2019-03-24T02:51:10.185Z,24.37
2019-03-24T02:53:36.176Z,24.63
2019-03-24T02:56:02.190Z,25.57
2019-03-24T02:58:28.184Z,25.43
2019-03-24T03:00:54.187Z,25.83
2019-03-24T03:03:20.197Z,24.90
2019-03-24T03:05:46.192Z,25.80
2019-03-24T03:08:12.469Z,26.67
2019-03-24T03:10:38.474Z,25.03
2019-03-24T03:13:04.472Z,25.63
2019-03-24T03:15:30.466Z,26.07
2019-03-24T03:17:56.477Z,25.53
2019-03-24T03:20:22.490Z,24.93
2019-03-24T03:22:48.565Z,26.53
2019-03-24T03:25:14.665Z,27.40
2019-03-24T03:27:40.673Z,24.53
2019-03-24T03:30:08.225Z,26.17
2019-03-24T03:32:34.231Z,25.37
2019-03-24T03:35:01.012Z,25.40
2019-03-24T03:37:27.168Z,26.40
2019-03-24T03:39:57.672Z,26.67
2019-03-24T03:42:21.181Z,25.73
2019-03-24T03:44:47.178Z,25.83
2019-03-24T03:47:13.413Z,26.30
2019-03-24T03:49:39.607Z,28.13
2019-03-24T03:52:05.597Z,26.90
2019-03-24T03:54:31.600Z,25.97
2019-03-24T03:56:57.603Z,27.33
2019-03-24T03:59:23.894Z,27.43
2019-03-24T04:01:49.881Z,28.07
2019-03-24T04:04:15.889Z,27.50
2019-03-24T04:06:41.881Z,28.93
2019-03-24T04:09:07.903Z,27.43
2019-03-24T04:11:33.932Z,25.60
2019-03-24T04:13:59.939Z,26.87
2019-03-24T04:16:25.924Z,27.87
2019-03-24T04:18:51.938Z,27.80
2019-03-24T04:21:17.929Z,28.73
2019-03-24T04:23:43.944Z,26.00
2019-03-24T04:26:10.261Z,27.67
2019-03-24T04:28:36.255Z,28.13
2019-03-24T04:31:02.261Z,27.87
2019-03-24T04:33:28.532Z,25.47
2019-03-24T04:35:54.560Z,26.33
2019-03-24T04:38:20.547Z,25.57
2019-03-24T04:40:46.559Z,25.10
2019-03-24T04:43:12.560Z,26.10
2019-03-24T04:45:38.569Z,24.97
2019-03-24T04:48:04.563Z,23.93
2019-03-24T04:50:30.584Z,24.70
2019-03-24T04:52:56.571Z,23.47
2019-03-24T04:55:22.586Z,24.97
2019-03-24T04:57:48.567Z,24.40
2019-03-24T05:00:15.206Z,24.13
2019-03-24T05:02:41.195Z,23.87
2019-03-24T05:05:07.710Z,23.67
2019-03-24T05:07:33.888Z,24.73
2019-03-24T05:10:00.500Z,22.87
2019-03-24T05:12:26.521Z,23.90
2019-03-24T05:14:52.528Z,23.30
2019-03-24T05:17:26.674Z,22.33
2019-03-24T05:19:46.674Z,25.07
2019-03-24T05:22:12.680Z,23.37
2019-03-24T05:24:38.678Z,23.87
2019-03-24T05:27:04.790Z,22.87
2019-03-24T05:29:30.785Z,23.63
2019-03-24T05:31:57.100Z,23.13
2019-03-24T05:34:23.093Z,23.37
2019-03-24T05:36:49.120Z,22.20
2019-03-24T05:39:15.381Z,21.63
2019-03-24T05:41:41.392Z,22.10
2019-03-24T05:44:07.634Z,22.27
2019-03-24T05:46:33.959Z,22.87
2019-03-24T05:48:59.953Z,23.27
2019-03-24T05:51:25.976Z,21.77
2019-03-24T05:53:52.242Z,20.93
2019-03-24T05:56:18.246Z,21.37
2019-03-24T05:58:44.255Z,22.47
2019-03-24T06:01:10.487Z,23.00
2019-03-24T06:03:36.467Z,22.03
2019-03-24T06:06:02.672Z,22.83
2019-03-24T06:08:28.892Z,22.10
2019-03-24T06:10:54.897Z,21.97
2019-03-24T06:13:21.155Z,23.07
2019-03-24T06:15:47.389Z,22.53
2019-03-24T06:18:13.384Z,21.63
2019-03-24T06:20:39.397Z,21.77
2019-03-24T06:23:05.388Z,22.37
2019-03-24T06:25:34.741Z,22.37
2019-03-24T06:27:59.418Z,21.77
2019-03-24T06:30:25.409Z,23.23
2019-03-24T06:32:51.452Z,25.97
2019-03-24T06:35:17.726Z,22.70
2019-03-24T06:37:43.738Z,23.63
2019-03-24T06:40:10.138Z,22.77
2019-03-24T06:42:36.425Z,22.60
2019-03-24T06:45:04.597Z,22.77
2019-03-24T06:47:30.602Z,22.27
2019-03-24T06:49:56.596Z,22.83
2019-03-24T06:52:22.796Z,22.63
2019-03-24T06:54:48.798Z,20.97
2019-03-24T06:57:16.921Z,22.90
2019-03-24T06:59:42.695Z,22.47
2019-03-24T07:02:08.685Z,22.20
2019-03-24T07:04:34.692Z,22.37
2019-03-24T07:07:00.964Z,22.97
2019-03-24T07:09:26.969Z,21.17
2019-03-24T07:11:52.956Z,21.00
2019-03-24T07:14:18.983Z,21.07
2019-03-24T07:16:44.963Z,22.47
2019-03-24T07:19:10.958Z,22.43
2019-03-24T07:21:36.999Z,21.10
2019-03-24T07:24:03.148Z,22.83
2019-03-24T07:26:29.167Z,23.80
2019-03-24T07:28:55.167Z,23.47
2019-03-24T07:31:21.412Z,25.80
2019-03-24T07:33:47.745Z,25.50
2019-03-24T07:36:14.008Z,26.43
2019-03-24T07:38:40.000Z,27.30
2019-03-24T07:41:05.988Z,28.13
2019-03-24T07:43:32.300Z,27.97
2019-03-24T07:45:58.616Z,28.73
2019-03-24T07:48:24.940Z,28.20
2019-03-24T07:50:50.931Z,28.60
2019-03-24T07:53:17.136Z,28.33
2019-03-24T07:55:43.151Z,28.37
2019-03-24T07:58:09.159Z,29.50
2019-03-24T08:00:36.458Z,28.03
2019-03-24T08:03:02.756Z,27.90
2019-03-24T08:05:28.851Z,28.30
2019-03-24T08:07:55.112Z,29.23
2019-03-24T08:10:21.416Z,28.03
2019-03-24T08:12:47.443Z,27.07
2019-03-24T08:15:13.508Z,25.87
2019-03-24T08:17:39.664Z,26.63
2019-03-24T08:20:06.228Z,24.03
2019-03-24T08:22:32.214Z,24.73
2019-03-24T08:24:58.480Z,23.37
2019-03-24T08:27:24.844Z,23.93
2019-03-24T08:29:50.848Z,23.00
2019-03-24T08:32:16.936Z,24.57
2019-03-24T08:34:42.961Z,23.70
2019-03-24T08:37:08.952Z,22.73
2019-03-24T08:39:34.953Z,24.67
2019-03-24T08:42:00.961Z,23.30
2019-03-24T08:44:26.956Z,23.77
2019-03-24T08:46:52.980Z,23.13
2019-03-24T08:49:19.173Z,24.00
2019-03-24T08:51:45.165Z,22.30
2019-03-24T08:54:11.171Z,24.93
2019-03-24T08:56:37.168Z,22.40
2019-03-24T08:59:03.277Z,23.33
2019-03-24T09:01:29.276Z,23.30
2019-03-24T09:03:55.268Z,21.97
2019-03-24T09:06:21.271Z,22.97
2019-03-24T09:08:48.979Z,23.63
2019-03-24T09:11:15.244Z,21.77
2019-03-24T09:13:41.539Z,20.63
2019-03-24T09:16:07.578Z,21.67
2019-03-24T09:18:33.886Z,22.73
2019-03-24T09:21:00.212Z,22.57
2019-03-24T09:23:26.207Z,22.07
2019-03-24T09:25:52.219Z,21.90
2019-03-24T09:28:18.373Z,20.77
2019-03-24T09:30:44.640Z,21.90
2019-03-24T09:33:10.620Z,19.90
2019-03-24T09:35:36.637Z,22.13
2019-03-24T09:38:03.120Z,21.47
2019-03-24T09:40:34.159Z,20.83
2019-03-24T09:43:01.054Z,23.20
2019-03-24T09:45:28.464Z,21.00
2019-03-24T09:47:54.453Z,22.13
2019-03-24T09:50:20.458Z,23.83
2019-03-24T09:52:46.481Z,26.50
2019-03-24T09:55:12.749Z,25.97
2019-03-24T09:57:38.745Z,29.73
2019-03-24T10:00:05.846Z,25.67
2019-03-24T10:02:31.916Z,25.77
2019-03-24T10:04:57.916Z,25.27
2019-03-24T10:07:23.952Z,23.77
2019-03-24T10:09:49.955Z,24.23
2019-03-24T10:12:16.246Z,25.07
2019-03-24T10:14:42.585Z,23.27
2019-03-24T10:17:08.916Z,22.90
2019-03-24T10:19:35.066Z,23.77
2019-03-24T10:22:01.162Z,25.27
2019-03-24T10:24:27.412Z,24.20
2019-03-24T10:26:53.393Z,24.50
2019-03-24T10:29:19.648Z,24.17
2019-03-24T10:31:45.694Z,25.73
2019-03-24T10:34:11.683Z,24.80
2019-03-24T10:36:37.781Z,25.53
2019-03-24T10:39:04.485Z,25.57
2019-03-24T10:41:30.824Z,25.27
2019-03-24T10:43:56.828Z,25.50
2019-03-24T10:46:22.840Z,25.60
2019-03-24T10:48:48.827Z,24.13
2019-03-24T10:51:14.855Z,25.83
2019-03-24T10:53:40.859Z,25.43
2019-03-24T10:56:06.857Z,26.03
2019-03-24T10:58:32.854Z,24.60
2019-03-24T11:00:58.878Z,26.67
2019-03-24T11:03:24.881Z,24.70
2019-03-24T11:05:50.887Z,26.03
2019-03-24T11:08:16.884Z,25.47
2019-03-24T11:10:42.894Z,24.53
2019-03-24T11:13:09.315Z,24.37
2019-03-24T11:15:35.647Z,26.07
2019-03-24T11:18:01.977Z,24.73
2019-03-24T11:20:27.972Z,24.33
2019-03-24T11:22:54.180Z,24.10
2019-03-24T11:25:20.171Z,24.30
2019-03-24T11:27:46.186Z,25.10
2019-03-24T11:30:12.813Z,25.20
2019-03-24T11:32:39.177Z,25.10
2019-03-24T11:35:05.674Z,24.87
2019-03-24T11:37:32.148Z,23.20
2019-03-24T11:39:58.141Z,24.03
2019-03-24T11:42:24.140Z,23.13
2019-03-24T11:44:50.144Z,24.27
2019-03-24T11:47:26.227Z,24.57
2019-03-24T11:49:46.269Z,20.57
2019-03-24T11:52:12.564Z,19.07
2019-03-24T11:54:38.584Z,18.97
2019-03-24T11:57:05.023Z,19.73
2019-03-24T11:59:31.032Z,19.60
2019-03-24T12:01:57.030Z,19.33
2019-03-24T12:04:23.039Z,19.07
2019-03-24T12:06:49.053Z,18.53
2019-03-24T12:09:15.344Z,19.27
2019-03-24T12:11:41.480Z,21.07
2019-03-24T12:14:07.484Z,22.00
2019-03-24T12:16:33.728Z,20.87
2019-03-24T12:19:00.075Z,21.73
2019-03-24T12:21:26.064Z,21.27
2019-03-24T12:23:52.075Z,16.07
2019-03-24T12:26:18.061Z,18.03
2019-03-24T12:28:44.365Z,18.37
2019-03-24T12:31:10.394Z,16.47
2019-03-24T12:33:36.399Z,18.70
2019-03-24T12:36:02.501Z,17.80
2019-03-24T12:38:28.504Z,16.97
2019-03-24T12:40:54.511Z,18.73
2019-03-24T12:43:20.515Z,18.33
2019-03-24T12:45:46.523Z,18.10
2019-03-24T12:48:12.553Z,18.03
2019-03-24T12:50:38.664Z,20.23
2019-03-24T12:53:04.660Z,18.83
2019-03-24T12:55:30.644Z,19.17
2019-03-24T12:57:56.667Z,19.40
2019-03-24T13:00:32.645Z,19.53
2019-03-24T13:02:58.939Z,19.83
2019-03-24T13:05:24.937Z,19.77
2019-03-24T13:07:50.954Z,21.17
2019-03-24T13:10:16.939Z,20.03
2019-03-24T13:12:42.973Z,18.73
2019-03-24T13:15:09.172Z,19.73
2019-03-24T13:17:35.192Z,18.57
2019-03-24T13:20:02.476Z,20.93
2019-03-24T13:22:28.495Z,20.27
2019-03-24T13:24:54.476Z,18.57
2019-03-24T13:27:20.473Z,18.53
2019-03-24T13:29:46.751Z,18.13
2019-03-24T13:32:12.788Z,18.03
2019-03-24T13:34:38.780Z,18.10
2019-03-24T13:37:04.784Z,18.70
2019-03-24T13:39:30.776Z,18.80
2019-03-24T13:41:56.813Z,19.97
2019-03-24T13:44:22.815Z,17.70
2019-03-24T13:46:49.043Z,16.00
2019-03-24T13:49:15.054Z,17.00
2019-03-24T13:51:41.057Z,17.00
2019-03-24T13:54:07.930Z,17.23
2019-03-24T13:56:34.188Z,18.50
2019-03-24T13:59:00.196Z,16.30
2019-03-24T14:01:26.524Z,17.00
2019-03-24T14:03:52.528Z,16.83
2019-03-24T14:06:18.540Z,16.87
2019-03-24T14:08:44.568Z,16.53
2019-03-24T14:11:10.581Z,17.27
2019-03-24T14:13:36.593Z,17.57
2019-03-24T14:16:02.700Z,16.87
2019-03-24T14:18:28.707Z,15.33
2019-03-24T14:20:54.705Z,16.73
2019-03-24T14:23:20.702Z,15.93
2019-03-24T14:25:46.740Z,16.20
2019-03-24T14:28:12.748Z,15.77
2019-03-24T14:30:40.772Z,16.27
2019-03-24T14:33:06.776Z,16.80
2019-03-24T14:35:32.787Z,16.53
2019-03-24T14:37:58.816Z,15.70
2019-03-24T14:40:24.900Z,16.10
2019-03-24T14:42:50.922Z,15.93
2019-03-24T14:45:16.913Z,17.00
2019-03-24T14:47:43.276Z,15.43
2019-03-24T14:50:09.665Z,14.70
2019-03-24T14:52:35.692Z,14.63
2019-03-24T14:55:02.115Z,14.23
2019-03-24T14:57:28.355Z,14.63
2019-03-24T14:59:54.369Z,14.27
2019-03-24T15:02:20.369Z,14.07
2019-03-24T15:04:46.386Z,13.27
2019-03-24T15:07:12.383Z,12.97
2019-03-24T15:09:38.416Z,13.17
2019-03-24T15:12:04.614Z,12.63
2019-03-24T15:14:30.932Z,10.53
2019-03-24T15:16:56.944Z,11.00
2019-03-24T15:19:22.995Z,11.93
2019-03-24T15:21:48.991Z,10.80
2019-03-24T15:24:15.236Z,11.07
2019-03-24T15:26:41.254Z,11.13
2019-03-24T15:29:07.260Z,10.33
2019-03-24T15:31:38.244Z,10.63
2019-03-24T15:34:04.673Z,11.03
2019-03-24T15:36:30.677Z,10.70
2019-03-24T15:38:56.666Z,11.63
2019-03-24T15:41:22.973Z,9.80
2019-03-24T15:43:48.967Z,8.73
2019-03-24T15:46:14.972Z,9.03
2019-03-24T15:48:40.980Z,7.63
2019-03-24T15:51:16.252Z,8.50
2019-03-24T15:53:34.917Z,7.50
2019-03-24T15:56:00.939Z,7.43
2019-03-24T15:58:26.924Z,8.43
2019-03-24T16:00:52.935Z,8.40
2019-03-24T16:03:19.215Z,8.20
2019-03-24T16:05:45.231Z,8.80
2019-03-24T16:08:11.248Z,8.37
2019-03-24T16:10:37.240Z,8.30
2019-03-24T16:13:03.441Z,8.93
2019-03-24T16:15:29.661Z,8.70
2019-03-24T16:17:55.655Z,9.50
2019-03-24T16:20:21.776Z,9.67
2019-03-24T16:22:48.035Z,8.57
2019-03-24T16:25:14.147Z,9.53
2019-03-24T16:27:40.140Z,8.57
2019-03-24T16:30:06.914Z,8.63
2019-03-24T16:32:32.944Z,9.70
2019-03-24T16:34:58.962Z,8.60
2019-03-24T16:37:24.952Z,8.50
2019-03-24T16:39:50.975Z,9.77
2019-03-24T16:42:16.984Z,8.87
2019-03-24T16:44:43.018Z,9.10
2019-03-24T16:47:09.006Z,9.33
2019-03-24T16:49:35.168Z,9.63
2019-03-24T16:52:01.535Z,9.07
2019-03-24T16:54:27.863Z,8.97
2019-03-24T16:56:53.924Z,9.37
2019-03-24T16:59:19.929Z,8.80
2019-03-24T17:01:45.925Z,8.20
2019-03-24T17:04:12.498Z,8.50
2019-03-24T17:06:38.515Z,8.57
2019-03-24T17:09:04.910Z,8.53
2019-03-24T17:11:31.168Z,8.87
2019-03-24T17:13:57.178Z,8.33
2019-03-24T17:16:23.188Z,9.53
2019-03-24T17:18:49.187Z,8.30
2019-03-24T17:21:15.243Z,8.80
2019-03-24T17:23:41.245Z,8.13
2019-03-24T17:26:07.617Z,8.67
2019-03-24T17:28:33.608Z,8.67
2019-03-24T17:30:59.872Z,8.57
2019-03-24T17:33:25.879Z,9.67
2019-03-24T17:35:51.901Z,10.40
2019-03-24T17:38:17.877Z,12.17
2019-03-24T17:40:43.879Z,13.37
2019-03-24T17:43:09.872Z,12.90
2019-03-24T17:45:35.896Z,14.83
2019-03-24T17:48:02.145Z,15.90
2019-03-24T17:50:28.146Z,15.10
2019-03-24T17:52:54.152Z,16.03
2019-03-24T17:55:27.684Z,16.10
2019-03-24T17:57:48.063Z,16.67
2019-03-24T18:00:19.268Z,17.13
2019-03-24T18:02:45.257Z,15.20
2019-03-24T18:05:11.765Z,15.90
2019-03-24T18:07:38.052Z,18.63
2019-03-24T18:10:05.265Z,19.80
2019-03-24T18:12:31.503Z,20.00
2019-03-24T18:14:57.498Z,18.30
2019-03-24T18:17:23.524Z,24.57
2019-03-24T18:19:49.525Z,20.93
2019-03-24T18:22:15.542Z,20.10
2019-03-24T18:24:41.560Z,18.13
2019-03-24T18:27:07.545Z,17.10
2019-03-24T18:29:33.552Z,16.50
2019-03-24T18:31:59.536Z,16.57
2019-03-24T18:34:25.569Z,16.80
2019-03-24T18:36:51.837Z,16.83
2019-03-24T18:39:17.835Z,16.50
2019-03-24T18:41:43.853Z,16.67
2019-03-24T18:44:09.836Z,16.20
2019-03-24T18:46:35.845Z,17.07
2019-03-24T18:49:01.872Z,15.87
2019-03-24T18:51:27.874Z,16.67
2019-03-24T18:53:53.861Z,15.53
2019-03-24T18:56:19.869Z,15.50
2019-03-24T18:58:45.860Z,17.07
2019-03-24T19:01:11.872Z,15.43
2019-03-24T19:03:37.864Z,15.50
2019-03-24T19:06:03.864Z,15.20
2019-03-24T19:08:29.859Z,15.80
2019-03-24T19:10:55.861Z,14.00
2019-03-24T19:13:21.896Z,14.17
2019-03-24T19:15:48.252Z,13.80
2019-03-24T19:18:14.247Z,13.53
2019-03-24T19:20:40.330Z,11.93
2019-03-24T19:23:06.316Z,12.20
2019-03-24T19:25:32.331Z,11.50
2019-03-24T19:27:58.343Z,11.63
2019-03-24T19:30:33.388Z,11.60
2019-03-24T19:32:59.398Z,11.47
2019-03-24T19:35:25.431Z,10.90
2019-03-24T19:37:52.465Z,13.83
2019-03-24T19:40:27.336Z,14.90
2019-03-24T19:42:53.653Z,11.33
2019-03-24T19:45:19.649Z,9.63
2019-03-24T19:47:45.656Z,8.53
2019-03-24T19:50:11.747Z,8.50
2019-03-24T19:52:44.646Z,7.87
2019-03-24T19:55:06.296Z,7.23
2019-03-24T19:57:32.440Z,7.47
2019-03-24T19:59:58.527Z,5.57
2019-03-24T20:02:24.533Z,5.87
2019-03-24T20:04:50.516Z,5.67
2019-03-24T20:07:16.814Z,5.73
2019-03-24T20:09:42.807Z,5.40
2019-03-24T20:12:08.820Z,5.13
2019-03-24T20:14:35.096Z,4.70
2019-03-24T20:17:01.100Z,5.10
2019-03-24T20:19:27.104Z,5.00
2019-03-24T20:21:53.100Z,6.53
2019-03-24T20:24:19.093Z,5.70
2019-03-24T20:26:45.119Z,5.70
2019-03-24T20:29:11.104Z,5.53
2019-03-24T20:31:37.100Z,4.43
2019-03-24T20:34:03.209Z,5.40
2019-03-24T20:36:29.309Z,4.63
2019-03-24T20:38:55.305Z,5.13
2019-03-24T20:41:21.528Z,4.43
2019-03-24T20:43:47.525Z,4.67
2019-03-24T20:46:13.516Z,4.63
2019-03-24T20:48:39.522Z,4.20
2019-03-24T20:51:05.520Z,4.40
2019-03-24T20:53:31.785Z,4.47
2019-03-24T20:55:57.776Z,4.30
2019-03-24T20:58:23.772Z,4.40
2019-03-24T21:00:49.767Z,5.03
2019-03-24T21:03:15.771Z,4.23
2019-03-24T21:05:41.785Z,3.80
2019-03-24T21:08:07.791Z,4.20
2019-03-24T21:10:34.099Z,4.10
2019-03-24T21:13:00.139Z,4.00
2019-03-24T21:15:26.136Z,4.63
2019-03-24T21:17:52.150Z,4.40
2019-03-24T21:20:18.392Z,3.60
2019-03-24T21:22:44.365Z,3.30
2019-03-24T21:25:10.720Z,4.30
2019-03-24T21:27:36.778Z,4.20
2019-03-24T21:30:06.425Z,3.70
2019-03-24T21:32:32.704Z,2.73
2019-03-24T21:34:58.713Z,3.77
2019-03-24T21:37:24.739Z,3.53
2019-03-24T21:39:50.724Z,3.43
2019-03-24T21:42:16.774Z,3.30
2019-03-24T21:44:42.782Z,3.43
2019-03-24T21:47:08.773Z,3.77
2019-03-24T21:49:34.776Z,3.67
2019-03-24T21:52:01.103Z,3.63
2019-03-24T21:54:27.099Z,2.90
2019-03-24T21:56:53.113Z,3.23
2019-03-24T21:59:19.108Z,3.30
2019-03-24T22:01:45.102Z,3.50
2019-03-24T22:04:11.101Z,2.77
2019-03-24T22:06:37.113Z,3.37
2019-03-24T22:09:05.528Z,2.47
2019-03-24T22:11:31.727Z,2.40
2019-03-24T22:13:57.744Z,2.67
2019-03-24T22:16:23.740Z,2.77
2019-03-24T22:18:49.842Z,3.00
2019-03-24T22:21:15.832Z,3.27
2019-03-24T22:23:51.873Z,2.33
2019-03-24T22:26:09.732Z,2.50
2019-03-24T22:28:35.746Z,2.50
2019-03-24T22:31:01.970Z,2.80
2019-03-24T22:33:27.968Z,2.80
2019-03-24T22:35:53.975Z,2.60
2019-03-24T22:38:20.000Z,3.10
2019-03-24T22:40:45.992Z,2.50
2019-03-24T22:43:11.993Z,2.63
2019-03-24T22:45:38.216Z,2.30
2019-03-24T22:48:04.220Z,3.33
2019-03-24T22:50:30.214Z,2.93
2019-03-24T22:52:56.223Z,2.90
2019-03-24T22:55:22.212Z,2.90
2019-03-24T22:57:48.540Z,2.90
2019-03-24T23:00:17.152Z,3.00
2019-03-24T23:02:43.773Z,2.67
2019-03-24T23:05:10.156Z,3.23
2019-03-24T23:07:36.145Z,2.50
2019-03-24T23:10:03.758Z,2.67
2019-03-24T23:12:30.014Z,2.70
2019-03-24T23:14:56.012Z,2.60
2019-03-24T23:17:22.203Z,2.87
2019-03-24T23:19:48.237Z,2.87
2019-03-24T23:22:14.228Z,2.93
2019-03-24T23:24:40.235Z,2.90
2019-03-24T23:27:06.227Z,2.60
2019-03-24T23:29:32.232Z,3.10
2019-03-24T23:31:58.233Z,2.80
2019-03-24T23:34:24.560Z,2.50
2019-03-24T23:36:50.534Z,1.90
2019-03-24T23:39:16.797Z,2.17
2019-03-24T23:41:42.811Z,3.20
2019-03-24T23:44:08.827Z,2.73
2019-03-24T23:46:34.816Z,2.60
2019-03-24T23:49:00.825Z,2.53
2019-03-24T23:51:27.124Z,2.23
2019-03-24T23:53:53.135Z,2.70
2019-03-24T23:56:19.476Z,2.20
2019-03-24T23:58:45.480Z,2.23
